Grandfield, Oklahoma
Current Conditions -  °F | °C
As of 11:53 PM on Sunday 25 Jan 2015 (Local Time) from KFDR Reporting Station
Clear Clear  
Wind Chill: 40°   Ceiling: Unl
Heat Index: 44°   Visibility: 10mi
Dew Point: 25°   Wind: 8mph
Humidity: 47%   Direction: 30°NNE
Pressure: 30.19"   Gusts: NA
Location:  34.23°N, 98.68°W
Report Text: KFDR 260553Z AUTO 03007KT 10SM CLR 07/M04 A3019 RMK AO2 SLP219 T00671039 10117 20033 401780033 51014
Loading
Personal Weather Stations






























Interactive Weather Map New forecast layout! Learn more

10-Day Weather Forecast

Advertisements
Track Severe Weather on mobile